createdAt,value
2022-12-14T00:01:23.596Z,59.33
2022-12-14T00:03:50.770Z,59.34
2022-12-14T00:06:23.370Z,59.43
2022-12-14T00:08:51.923Z,59.11
2022-12-14T00:11:24.739Z,59.23
2022-12-14T00:14:01.800Z,59.36
2022-12-14T00:16:30.692Z,59.44
2022-12-14T00:18:58.339Z,59.35
2022-12-14T00:21:25.629Z,58.51
2022-12-14T00:23:53.297Z,58.84
2022-12-14T00:26:24.928Z,58.80
2022-12-14T00:28:53.590Z,59.00
2022-12-14T00:31:21.103Z,59.06
2022-12-14T00:33:48.335Z,58.74
2022-12-14T00:36:14.880Z,59.04
2022-12-14T00:38:41.960Z,58.77
2022-12-14T00:41:09.393Z,58.35
2022-12-14T00:43:35.910Z,58.55
2022-12-14T00:46:02.588Z,58.50
2022-12-14T00:48:29.419Z,57.83
2022-12-14T00:50:56.727Z,58.72
2022-12-14T00:53:23.905Z,58.32
2022-12-14T00:55:50.684Z,58.74
2022-12-14T00:58:19.745Z,58.08
2022-12-14T01:00:48.212Z,57.97
2022-12-14T01:03:15.201Z,58.04
2022-12-14T01:05:41.733Z,58.69
2022-12-14T01:08:15.651Z,58.21
2022-12-14T01:10:41.959Z,58.61
2022-12-14T01:13:10.250Z,58.48
2022-12-14T01:15:37.083Z,58.22
2022-12-14T01:18:03.586Z,58.48
2022-12-14T01:20:30.665Z,58.40
2022-12-14T01:22:57.013Z,58.56
2022-12-14T01:25:23.854Z,58.94
2022-12-14T01:27:50.302Z,58.58
2022-12-14T01:30:19.134Z,58.82
2022-12-14T01:32:46.077Z,58.64
2022-12-14T01:35:12.633Z,58.43
2022-12-14T01:37:39.002Z,58.75
2022-12-14T01:40:06.040Z,58.57
2022-12-14T01:42:35.603Z,58.66
2022-12-14T01:45:02.148Z,58.58
2022-12-14T01:47:44.153Z,58.55
2022-12-14T01:50:29.510Z,58.11
2022-12-14T01:53:01.438Z,59.03
2022-12-14T01:55:40.234Z,58.96
2022-12-14T01:58:22.060Z,58.95
2022-12-14T02:00:52.493Z,58.99
2022-12-14T02:03:36.525Z,58.42
2022-12-14T02:06:11.938Z,58.67
2022-12-14T02:08:41.817Z,58.99
2022-12-14T02:11:08.174Z,58.95
2022-12-14T02:13:38.698Z,58.58
2022-12-14T02:16:05.656Z,58.72
2022-12-14T02:18:32.740Z,58.92
2022-12-14T02:21:17.725Z,58.78
2022-12-14T02:24:05.681Z,58.94
2022-12-14T02:26:54.930Z,59.32
2022-12-14T02:29:27.296Z,59.48
2022-12-14T02:32:18.558Z,58.75
2022-12-14T02:34:58.228Z,59.37
2022-12-14T02:37:49.673Z,58.84
2022-12-14T02:40:28.132Z,58.21
2022-12-14T02:43:00.647Z,58.62
2022-12-14T02:45:34.395Z,58.65
2022-12-14T02:48:18.568Z,58.66
2022-12-14T02:50:50.896Z,58.52
2022-12-14T02:53:45.400Z,58.64
2022-12-14T02:56:15.110Z,58.66
2022-12-14T02:58:50.952Z,58.56
2022-12-14T03:01:25.999Z,57.75
2022-12-14T03:03:52.537Z,58.79
2022-12-14T03:06:27.997Z,58.74
2022-12-14T03:09:02.514Z,58.01
2022-12-14T03:11:43.381Z,57.93
2022-12-14T03:14:22.952Z,58.21
2022-12-14T03:16:51.970Z,58.60
2022-12-14T03:19:25.613Z,57.95
2022-12-14T03:21:58.813Z,58.43
2022-12-14T03:24:34.237Z,58.26
2022-12-14T03:27:13.117Z,58.14
2022-12-14T03:29:45.995Z,57.49
2022-12-14T03:32:16.550Z,57.75
2022-12-14T03:34:49.676Z,58.52
2022-12-14T03:37:22.844Z,58.13
2022-12-14T03:39:49.489Z,58.73
2022-12-14T03:42:35.785Z,58.52
2022-12-14T03:45:18.246Z,58.45
2022-12-14T03:47:59.379Z,58.69
2022-12-14T03:50:25.665Z,58.95
2022-12-14T03:53:02.988Z,58.87
2022-12-14T03:55:49.015Z,59.62
2022-12-14T03:58:34.106Z,59.54
2022-12-14T04:01:14.490Z,59.37
2022-12-14T04:04:07.219Z,59.41
2022-12-14T04:06:58.785Z,59.71
2022-12-14T04:09:32.492Z,59.96
2022-12-14T04:12:31.136Z,60.28
2022-12-14T04:15:24.077Z,60.25
2022-12-14T04:18:11.950Z,60.31
2022-12-14T04:21:03.163Z,60.15
2022-12-14T04:24:04.503Z,59.99
2022-12-14T04:26:37.771Z,60.04
2022-12-14T04:29:35.407Z,60.22
2022-12-14T04:32:14.591Z,59.94
2022-12-14T04:34:46.180Z,60.36
2022-12-14T04:37:17.506Z,59.86
2022-12-14T04:39:57.891Z,59.62
2022-12-14T04:42:31.049Z,59.61
2022-12-14T04:45:05.120Z,59.52
2022-12-14T04:47:36.757Z,59.39
2022-12-14T04:50:15.137Z,59.82
2022-12-14T04:52:51.195Z,59.37
2022-12-14T04:55:20.776Z,59.96
2022-12-14T04:57:56.864Z,60.08
2022-12-14T05:00:23.706Z,59.93
2022-12-14T05:03:12.059Z,59.54
2022-12-14T05:05:58.111Z,59.80
2022-12-14T05:08:44.754Z,59.46
2022-12-14T05:11:48.115Z,59.28
2022-12-14T05:14:01.034Z,59.45
2022-12-14T05:16:27.466Z,59.24
2022-12-14T05:18:54.041Z,59.67
2022-12-14T05:21:38.943Z,59.61
2022-12-14T05:24:05.605Z,59.66
2022-12-14T05:26:32.236Z,59.92
2022-12-14T05:28:58.600Z,59.61
2022-12-14T05:31:25.316Z,59.66
2022-12-14T05:33:51.662Z,59.34
2022-12-14T05:36:19.482Z,60.05
2022-12-14T05:38:48.455Z,59.70
2022-12-14T05:41:18.041Z,59.76
2022-12-14T05:43:48.943Z,59.74
2022-12-14T05:46:20.360Z,59.62
2022-12-14T05:48:51.493Z,60.36
2022-12-14T05:51:21.127Z,60.26
2022-12-14T05:53:47.777Z,60.19
2022-12-14T05:56:14.243Z,60.23
2022-12-14T05:58:40.754Z,60.64
2022-12-14T06:01:12.720Z,60.85
2022-12-14T06:03:43.639Z,60.59
2022-12-14T06:06:12.656Z,60.68
2022-12-14T06:08:43.181Z,60.68
2022-12-14T06:11:12.914Z,60.83
2022-12-14T06:13:40.601Z,60.83
2022-12-14T06:16:21.674Z,60.79
2022-12-14T06:18:53.759Z,61.11
2022-12-14T06:21:25.896Z,61.67
2022-12-14T06:23:52.716Z,60.92
2022-12-14T06:26:19.232Z,61.50
2022-12-14T06:28:45.728Z,61.35
2022-12-14T06:31:19.307Z,61.23
2022-12-14T06:33:46.313Z,61.09
2022-12-14T06:36:23.490Z,61.40
2022-12-14T06:38:54.109Z,61.56
2022-12-14T06:41:21.945Z,61.38
2022-12-14T06:43:49.202Z,61.60
2022-12-14T06:46:19.274Z,61.40
2022-12-14T06:48:49.728Z,61.32
2022-12-14T06:51:16.104Z,61.43
2022-12-14T06:53:42.408Z,61.32
2022-12-14T06:56:16.085Z,61.90
2022-12-14T06:58:42.599Z,61.77
2022-12-14T07:01:13.218Z,61.68
2022-12-14T07:03:39.972Z,61.60
2022-12-14T07:06:10.528Z,61.64
2022-12-14T07:08:38.373Z,61.72
2022-12-14T07:11:10.119Z,61.46
2022-12-14T07:13:36.578Z,61.67
2022-12-14T07:16:04.930Z,61.63
2022-12-14T07:18:32.468Z,61.51
2022-12-14T07:21:01.125Z,61.81
2022-12-14T07:23:31.051Z,61.38
2022-12-14T07:26:02.641Z,61.13
2022-12-14T07:28:29.680Z,61.45
2022-12-14T07:30:57.911Z,61.17
2022-12-14T07:33:25.277Z,61.56
2022-12-14T07:35:51.911Z,61.38
2022-12-14T07:38:18.864Z,61.42
2022-12-14T07:40:45.331Z,61.62
2022-12-14T07:43:11.629Z,61.99
2022-12-14T07:45:38.046Z,61.61
2022-12-14T07:48:06.992Z,61.68
2022-12-14T07:50:33.333Z,61.89
2022-12-14T07:52:59.752Z,61.71
2022-12-14T07:55:26.110Z,62.00
2022-12-14T07:57:52.458Z,61.91
2022-12-14T08:00:18.967Z,62.17
2022-12-14T08:02:45.468Z,62.04
2022-12-14T08:05:12.933Z,61.92
2022-12-14T08:07:39.493Z,61.68
2022-12-14T08:10:06.601Z,61.51
2022-12-14T08:12:32.907Z,61.91
2022-12-14T08:14:59.238Z,61.18
2022-12-14T08:17:25.558Z,61.73
2022-12-14T08:19:51.889Z,61.90
2022-12-14T08:22:18.180Z,61.48
2022-12-14T08:24:44.495Z,61.64
2022-12-14T08:27:16.049Z,61.79
2022-12-14T08:29:42.544Z,61.82
2022-12-14T08:32:08.866Z,61.91
2022-12-14T08:34:35.186Z,62.41
2022-12-14T08:37:01.507Z,61.83
2022-12-14T08:39:27.878Z,61.77
2022-12-14T08:41:54.251Z,62.21
2022-12-14T08:44:20.620Z,62.04
2022-12-14T08:46:47.521Z,61.53
2022-12-14T08:49:13.955Z,61.74
2022-12-14T08:51:40.295Z,61.86
2022-12-14T08:54:06.591Z,61.89
2022-12-14T08:56:33.018Z,61.56
2022-12-14T08:58:59.353Z,61.45
2022-12-14T09:01:34.074Z,61.00
2022-12-14T09:04:08.533Z,61.05
2022-12-14T09:06:37.653Z,60.98
2022-12-14T09:09:08.060Z,61.42
2022-12-14T09:11:37.371Z,61.05
2022-12-14T09:14:03.800Z,61.24
2022-12-14T09:16:30.206Z,61.05
2022-12-14T09:18:57.606Z,60.89
2022-12-14T09:21:24.081Z,61.03
2022-12-14T09:23:57.293Z,60.90
2022-12-14T09:26:25.833Z,61.02
2022-12-14T09:28:54.410Z,60.88
2022-12-14T09:31:25.199Z,60.89
2022-12-14T09:33:51.768Z,60.66
2022-12-14T09:36:22.041Z,60.68
2022-12-14T09:38:52.659Z,60.21
2022-12-14T09:41:31.429Z,60.64
2022-12-14T09:44:35.436Z,60.55
2022-12-14T09:47:43.091Z,60.11
2022-12-14T09:50:16.928Z,59.97
2022-12-14T09:52:47.373Z,60.13
2022-12-14T09:55:46.312Z,59.85
2022-12-14T09:58:18.500Z,60.11
2022-12-14T10:00:53.881Z,59.88
2022-12-14T10:03:45.404Z,59.69
2022-12-14T10:06:27.470Z,59.17
2022-12-14T10:08:59.538Z,59.09
2022-12-14T10:11:35.404Z,58.91
2022-12-14T10:14:18.023Z,59.20
2022-12-14T10:17:13.814Z,59.03
2022-12-14T10:20:06.235Z,58.87
2022-12-14T10:22:37.664Z,58.91
2022-12-14T10:25:12.376Z,58.98
2022-12-14T10:28:09.286Z,58.93
2022-12-14T10:30:28.890Z,58.43
2022-12-14T10:33:24.660Z,58.28
2022-12-14T10:35:55.519Z,58.24
2022-12-14T10:38:31.495Z,58.03
2022-12-14T10:41:06.586Z,57.86
2022-12-14T10:43:50.530Z,57.62
2022-12-14T10:46:34.650Z,58.26
2022-12-14T10:49:16.301Z,57.74
2022-12-14T10:51:47.609Z,57.09
2022-12-14T10:54:36.159Z,57.02
2022-12-14T10:57:02.979Z,56.67
2022-12-14T10:59:40.725Z,56.58
2022-12-14T11:02:23.377Z,56.38
2022-12-14T11:04:58.463Z,55.33
2022-12-14T11:07:49.484Z,55.19
2022-12-14T11:10:20.382Z,55.75
2022-12-14T11:12:59.348Z,55.04
2022-12-14T11:15:38.152Z,55.02
2022-12-14T11:18:31.093Z,54.40
2022-12-14T11:21:03.418Z,54.51
2022-12-14T11:23:36.249Z,54.08
2022-12-14T11:26:06.704Z,54.31
2022-12-14T11:28:38.508Z,54.08
2022-12-14T11:31:14.325Z,54.69
2022-12-14T11:33:50.233Z,54.36
2022-12-14T11:36:24.126Z,54.09
2022-12-14T11:39:24.451Z,53.67
2022-12-14T11:42:02.373Z,54.04
2022-12-14T11:44:33.044Z,53.63
2022-12-14T11:47:00.167Z,53.62
2022-12-14T11:49:33.649Z,52.99
2022-12-14T11:52:15.232Z,53.26
2022-12-14T11:54:50.038Z,52.91
2022-12-14T11:57:22.599Z,53.04
2022-12-14T11:59:57.574Z,53.38
2022-12-14T12:02:30.456Z,52.78
2022-12-14T12:05:10.026Z,52.50
2022-12-14T12:07:39.491Z,52.90
2022-12-14T12:10:17.326Z,53.28
2022-12-14T12:12:59.689Z,52.23
2022-12-14T12:15:37.520Z,52.91
2022-12-14T12:18:13.310Z,52.76
2022-12-14T12:20:49.535Z,53.23
2022-12-14T12:23:28.863Z,53.22
2022-12-14T12:25:58.536Z,52.68
2022-12-14T12:28:29.652Z,52.39
2022-12-14T12:31:08.983Z,52.95
2022-12-14T12:33:57.360Z,53.48
2022-12-14T12:36:24.503Z,54.10
2022-12-14T12:39:02.627Z,54.63
2022-12-14T12:41:44.490Z,54.72
2022-12-14T12:44:32.736Z,55.23
2022-12-14T12:47:24.351Z,55.38
2022-12-14T12:49:53.383Z,55.02
2022-12-14T12:52:28.705Z,54.42
2022-12-14T12:55:02.984Z,54.01
2022-12-14T12:57:39.653Z,54.33
2022-12-14T13:00:07.516Z,53.75
2022-12-14T13:02:37.909Z,54.35
2022-12-14T13:05:45.305Z,54.38
2022-12-14T13:08:06.756Z,54.66
2022-12-14T13:10:50.479Z,54.02
2022-12-14T13:13:31.004Z,53.48
2022-12-14T13:16:04.665Z,53.50
2022-12-14T13:18:57.904Z,53.73
2022-12-14T13:21:35.017Z,53.73
2022-12-14T13:24:02.390Z,53.28
2022-12-14T13:26:59.329Z,53.55
2022-12-14T13:29:44.013Z,54.04
2022-12-14T13:32:26.489Z,53.86
2022-12-14T13:35:04.994Z,53.57
2022-12-14T13:38:01.221Z,54.09
2022-12-14T13:40:27.513Z,53.44
2022-12-14T13:43:22.423Z,53.73
2022-12-14T13:45:49.574Z,53.77
2022-12-14T13:48:28.814Z,54.10
2022-12-14T13:51:02.203Z,53.81
2022-12-14T13:53:40.684Z,53.05
2022-12-14T13:56:08.002Z,53.19
2022-12-14T13:58:38.580Z,52.98
2022-12-14T14:01:07.637Z,53.13
2022-12-14T14:03:34.080Z,52.41
2022-12-14T14:06:01.548Z,51.71
2022-12-14T14:08:41.053Z,52.18
2022-12-14T14:11:39.004Z,51.60
2022-12-14T14:14:34.618Z,51.64
2022-12-14T14:17:12.042Z,52.34
2022-12-14T14:19:41.186Z,53.27
2022-12-14T14:22:24.590Z,53.38
2022-12-14T14:24:52.745Z,53.84
2022-12-14T14:27:23.566Z,53.78
2022-12-14T14:29:51.519Z,54.04
2022-12-14T14:32:32.293Z,54.44
2022-12-14T14:35:01.262Z,54.58
2022-12-14T14:37:32.023Z,55.00
2022-12-14T14:40:21.575Z,55.12
2022-12-14T14:42:57.007Z,54.88
2022-12-14T14:45:31.200Z,55.03
2022-12-14T14:48:00.728Z,54.99
2022-12-14T14:50:32.475Z,55.04
2022-12-14T14:53:09.505Z,54.94
2022-12-14T14:55:52.831Z,55.03
2022-12-14T14:58:32.035Z,55.09
2022-12-14T15:01:24.679Z,55.04
2022-12-14T15:04:00.353Z,55.04
2022-12-14T15:06:31.709Z,55.21
2022-12-14T15:09:15.029Z,55.76
2022-12-14T15:11:48.777Z,56.21
2022-12-14T15:14:46.590Z,57.05
2022-12-14T15:17:23.361Z,56.65
2022-12-14T15:19:54.723Z,56.91
2022-12-14T15:22:24.833Z,56.74
2022-12-14T15:24:54.825Z,56.47
2022-12-14T15:27:32.567Z,56.87
2022-12-14T15:30:19.217Z,57.17
2022-12-14T15:33:00.796Z,58.19
2022-12-14T15:35:31.748Z,58.36
2022-12-14T15:38:02.422Z,58.39
2022-12-14T15:40:30.924Z,58.11
2022-12-14T15:43:00.584Z,58.83
2022-12-14T15:45:41.095Z,59.18
2022-12-14T15:48:20.110Z,60.56
2022-12-14T15:50:51.022Z,59.62
2022-12-14T15:53:37.130Z,59.76
2022-12-14T15:56:33.428Z,59.46
2022-12-14T15:59:07.219Z,59.11
2022-12-14T16:01:53.205Z,59.33
2022-12-14T16:04:23.155Z,59.92
2022-12-14T16:07:08.704Z,60.40
2022-12-14T16:09:49.922Z,60.20
2022-12-14T16:12:37.142Z,60.86
2022-12-14T16:15:18.433Z,60.72
2022-12-14T16:17:45.264Z,60.26
2022-12-14T16:20:26.550Z,60.01
2022-12-14T16:23:22.322Z,60.51
2022-12-14T16:25:58.050Z,60.73
2022-12-14T16:28:28.329Z,60.92
2022-12-14T16:31:19.878Z,60.93
2022-12-14T16:33:50.193Z,60.90
2022-12-14T16:36:27.894Z,61.14
2022-12-14T16:39:00.405Z,61.96
2022-12-14T16:41:41.035Z,61.28
2022-12-14T16:44:22.487Z,61.75
2022-12-14T16:47:11.904Z,61.66
2022-12-14T16:49:40.525Z,62.01
2022-12-14T16:52:09.985Z,61.21
2022-12-14T16:54:38.335Z,61.17
2022-12-14T16:57:18.090Z,61.58
2022-12-14T16:59:47.864Z,61.13
2022-12-14T17:02:38.218Z,61.12
2022-12-14T17:05:14.443Z,61.73
2022-12-14T17:07:41.132Z,62.59
2022-12-14T17:10:28.540Z,63.22
2022-12-14T17:12:59.990Z,62.44
2022-12-14T17:15:29.337Z,62.83
2022-12-14T17:17:57.425Z,62.22
2022-12-14T17:20:30.716Z,61.90
2022-12-14T17:23:01.753Z,62.07
2022-12-14T17:25:30.081Z,62.22
2022-12-14T17:27:56.736Z,61.34
2022-12-14T17:30:24.336Z,62.17
2022-12-14T17:32:52.504Z,62.26
2022-12-14T17:35:26.022Z,61.64
2022-12-14T17:37:52.431Z,61.44
2022-12-14T17:40:18.837Z,61.47
2022-12-14T17:42:51.636Z,61.82
2022-12-14T17:45:24.593Z,61.01
2022-12-14T17:47:50.956Z,61.59
2022-12-14T17:50:18.579Z,62.31
2022-12-14T17:52:45.537Z,61.08
2022-12-14T17:55:23.983Z,61.87
2022-12-14T17:57:51.543Z,62.30
2022-12-14T18:00:38.169Z,61.34
2022-12-14T18:03:05.636Z,62.26
2022-12-14T18:05:32.609Z,61.77
2022-12-14T18:07:59.178Z,62.13
2022-12-14T18:10:26.242Z,62.96
2022-12-14T18:12:53.043Z,63.01
2022-12-14T18:15:26.944Z,62.62
2022-12-14T18:17:53.638Z,61.92
2022-12-14T18:20:21.895Z,62.44
2022-12-14T18:22:49.821Z,62.06
2022-12-14T18:25:34.039Z,61.89
2022-12-14T18:28:02.317Z,62.66
2022-12-14T18:30:33.407Z,62.94
2022-12-14T18:33:05.176Z,63.09
2022-12-14T18:35:33.556Z,62.13
2022-12-14T18:38:00.664Z,61.70
2022-12-14T18:40:29.047Z,61.83
2022-12-14T18:42:56.536Z,61.87
2022-12-14T18:45:25.376Z,62.34
2022-12-14T18:47:52.214Z,61.84
2022-12-14T18:50:19.288Z,62.45
2022-12-14T18:52:46.322Z,62.52
2022-12-14T18:55:17.656Z,61.74
2022-12-14T18:57:48.846Z,62.20
2022-12-14T19:00:18.727Z,62.49
2022-12-14T19:02:46.982Z,63.01
2022-12-14T19:05:19.382Z,63.22
2022-12-14T19:07:46.068Z,63.60
2022-12-14T19:10:21.146Z,64.11
2022-12-14T19:12:48.656Z,63.56
2022-12-14T19:15:22.027Z,63.94
2022-12-14T19:17:48.917Z,63.84
2022-12-14T19:20:16.918Z,64.53
2022-12-14T19:22:44.203Z,63.96
2022-12-14T19:25:11.489Z,63.35
2022-12-14T19:28:15.500Z,63.14
2022-12-14T19:30:24.903Z,62.94
2022-12-14T19:32:53.195Z,62.44
2022-12-14T19:35:20.926Z,62.08
2022-12-14T19:37:47.707Z,62.33
2022-12-14T19:40:15.053Z,62.40
2022-12-14T19:42:41.894Z,62.53
2022-12-14T19:45:09.795Z,63.40
2022-12-14T19:47:36.537Z,63.51
2022-12-14T19:50:05.569Z,64.01
2022-12-14T19:52:33.951Z,64.01
2022-12-14T19:55:01.549Z,63.77
2022-12-14T19:57:28.125Z,63.06
2022-12-14T19:59:54.565Z,62.52
2022-12-14T20:02:21.040Z,62.46
2022-12-14T20:04:47.496Z,63.18
2022-12-14T20:07:14.324Z,64.23
2022-12-14T20:09:40.648Z,63.23
2022-12-14T20:12:10.815Z,62.68
2022-12-14T20:14:39.910Z,63.52
2022-12-14T20:17:08.026Z,64.07
2022-12-14T20:19:34.859Z,64.04
2022-12-14T20:22:01.358Z,64.71
2022-12-14T20:24:27.836Z,63.60
2022-12-14T20:26:54.227Z,63.77
2022-12-14T20:29:20.577Z,62.52
2022-12-14T20:31:47.125Z,62.38
2022-12-14T20:34:13.583Z,62.57
2022-12-14T20:36:40.042Z,62.61
2022-12-14T20:39:06.787Z,62.84
2022-12-14T20:41:34.189Z,62.54
2022-12-14T20:44:02.203Z,61.60
2022-12-14T20:46:35.398Z,61.84
2022-12-14T20:49:06.734Z,62.73
2022-12-14T20:51:35.966Z,62.39
2022-12-14T20:54:03.704Z,63.10
2022-12-14T20:56:30.178Z,63.89
2022-12-14T20:58:57.385Z,63.82
2022-12-14T21:01:23.966Z,64.84
2022-12-14T21:03:51.342Z,64.78
2022-12-14T21:06:19.962Z,64.71
2022-12-14T21:09:01.817Z,64.57
2022-12-14T21:12:07.106Z,63.69
2022-12-14T21:14:39.082Z,63.01
2022-12-14T21:17:06.170Z,63.18
2022-12-14T21:19:33.171Z,62.88
2022-12-14T21:21:59.586Z,62.46
2022-12-14T21:24:53.177Z,62.75
2022-12-14T21:27:19.403Z,63.16
2022-12-14T21:29:46.401Z,62.62
2022-12-14T21:32:14.622Z,62.41
2022-12-14T21:34:41.870Z,62.34
2022-12-14T21:37:08.719Z,62.05
2022-12-14T21:39:35.555Z,62.86
2022-12-14T21:42:15.458Z,63.52
2022-12-14T21:44:47.501Z,64.38
2022-12-14T21:47:16.902Z,63.78
2022-12-14T21:49:45.315Z,62.85
2022-12-14T21:52:14.190Z,62.35
2022-12-14T21:54:41.402Z,61.92
2022-12-14T21:57:29.023Z,62.22
2022-12-14T21:59:55.918Z,62.98
2022-12-14T22:02:25.006Z,62.42
2022-12-14T22:04:55.888Z,62.87
2022-12-14T22:07:25.214Z,61.94
2022-12-14T22:09:51.565Z,62.65
2022-12-14T22:12:18.429Z,62.89
2022-12-14T22:14:44.738Z,63.66
2022-12-14T22:17:12.662Z,63.80
2022-12-14T22:19:39.049Z,63.23
2022-12-14T22:22:05.356Z,63.43
2022-12-14T22:24:32.089Z,64.32
2022-12-14T22:26:59.350Z,64.66
2022-12-14T22:29:25.747Z,63.52
2022-12-14T22:31:52.305Z,63.98
2022-12-14T22:34:21.278Z,62.75
2022-12-14T22:36:49.394Z,63.38
2022-12-14T22:39:17.303Z,64.11
2022-12-14T22:41:43.718Z,63.91
2022-12-14T22:44:12.489Z,64.42
2022-12-14T22:46:39.340Z,63.83
2022-12-14T22:49:05.788Z,63.89
2022-12-14T22:51:32.283Z,63.49
2022-12-14T22:53:58.657Z,63.77
2022-12-14T22:56:36.918Z,63.78
2022-12-14T22:59:09.289Z,64.44
2022-12-14T23:01:37.377Z,65.15
2022-12-14T23:04:06.232Z,64.67
2022-12-14T23:06:33.418Z,64.12
2022-12-14T23:09:18.070Z,64.39
2022-12-14T23:12:03.286Z,63.37
2022-12-14T23:14:47.987Z,62.97
2022-12-14T23:17:33.346Z,63.93
2022-12-14T23:20:18.120Z,63.59
2022-12-14T23:23:02.851Z,63.06
2022-12-14T23:25:47.597Z,62.73
2022-12-14T23:28:32.738Z,63.24
2022-12-14T23:31:17.620Z,62.86
2022-12-14T23:34:02.714Z,63.24
2022-12-14T23:36:47.519Z,64.06
2022-12-14T23:39:34.951Z,63.80
2022-12-14T23:42:19.504Z,65.33
2022-12-14T23:45:04.458Z,65.15
2022-12-14T23:47:49.376Z,64.62
2022-12-14T23:50:34.565Z,64.51
2022-12-14T23:53:23.945Z,64.14
2022-12-14T23:56:08.715Z,63.08
2022-12-14T23:58:53.484Z,63.62
